Time;durP1;ratioP1;P1;durP2;ratioP2;P2;SDS_P1;SDS_P2;PMS_P1;PMS_P2;Temp;Humidity;BMP_temperature;BMP_pressure;BME280_temperature;BME280_humidity;BME280_pressure;Samples;Min_cycle;Max_cycle;Signal;HPM_P1;HPM_P2
2021/10/22 00:00:41;;;;;;;6.73;1.87;;;;;;;6.33;90.12;101529.00;5113629;28;20032;-36
2021/10/22 00:03:06;;;;;;;11.87;2.43;;;;;;;6.31;90.01;101539.13;5114265;28;20022;-36
2021/10/22 00:05:33;;;;;;;10.47;2.27;;;;;;;6.30;90.36;101533.94;5114107;28;20027;-36
2021/10/22 00:07:59;;;;;;;10.85;2.80;;;;;;;6.24;90.28;101529.28;5112957;28;20020;-36
2021/10/22 00:10:25;;;;;;;11.50;2.42;;;;;;;6.15;90.68;101525.88;5113965;28;20027;-36
2021/10/22 00:12:51;;;;;;;12.38;2.53;;;;;;;6.20;90.48;101534.22;5113925;28;20028;-36
2021/10/22 00:15:17;;;;;;;10.88;2.05;;;;;;;6.13;90.03;101527.91;5113693;28;20380;-36
2021/10/22 00:17:42;;;;;;;13.33;2.67;;;;;;;6.10;90.57;101528.25;5113969;28;20042;-36
2021/10/22 00:20:09;;;;;;;11.77;2.40;;;;;;;6.07;90.41;101531.34;5113651;28;20285;-37
2021/10/22 00:22:35;;;;;;;8.40;1.98;;;;;;;6.06;91.00;101527.00;5113595;28;20058;-36
2021/10/22 00:25:01;;;;;;;11.40;2.20;;;;;;;6.03;90.68;101532.72;5113550;28;20059;-36
2021/10/22 00:27:26;;;;;;;8.68;2.85;;;;;;;6.07;91.38;101529.47;5113976;28;20019;-36
2021/10/22 00:29:51;;;;;;;7.20;1.97;;;;;;;6.06;90.61;101527.00;5113933;28;20108;-36
2021/10/22 00:32:17;;;;;;;12.37;2.63;;;;;;;5.94;90.98;101535.47;5113692;28;20348;-38
2021/10/22 00:34:42;;;;;;;9.03;2.30;;;;;;;5.98;91.04;101535.13;5113300;28;20026;-36
2021/10/22 00:37:07;;;;;;;14.73;2.43;;;;;;;5.99;90.49;101534.09;5113273;28;20015;-36
2021/10/22 00:39:33;;;;;;;9.00;2.33;;;;;;;6.00;90.68;101546.50;5113475;28;20028;-36
2021/10/22 00:41:59;;;;;;;16.67;2.53;;;;;;;5.90;90.74;101528.81;5113603;28;20048;-37
2021/10/22 00:44:24;;;;;;;14.88;2.72;;;;;;;5.98;91.02;101545.88;5112996;28;20034;-36
2021/10/22 00:46:53;;;;;;;9.20;1.97;;;;;;;5.99;90.66;101545.66;5113440;28;20102;-36
2021/10/22 00:49:21;;;;;;;12.73;3.05;;;;;;;5.90;90.44;101520.75;5113255;28;20481;-36
2021/10/22 00:51:47;;;;;;;13.60;3.13;;;;;;;5.89;89.89;101516.38;5113593;28;20076;-36
2021/10/22 00:54:13;;;;;;;15.10;2.70;;;;;;;5.87;90.51;101523.78;5113650;28;20019;-36
2021/10/22 00:56:38;;;;;;;;;;;;;;;5.99;89.84;101526.03;5113839;28;20028;-36
2021/10/22 00:59:05;;;;;;;11.20;2.42;;;;;;;5.92;89.63;101524.09;5113230;28;20354;-36
2021/10/22 01:01:31;;;;;;;9.45;2.50;;;;;;;5.90;89.93;101531.50;5113429;28;20361;-36
2021/10/22 01:03:56;;;;;;;11.80;2.83;;;;;;;5.92;90.27;101521.41;5113325;28;20073;-36
2021/10/22 01:06:22;;;;;;;11.05;2.47;;;;;;;5.86;89.82;101521.31;5113293;28;20020;-36
2021/10/22 01:08:48;;;;;;;14.95;2.42;;;;;;;5.80;89.23;101505.91;5113254;28;20023;-36
2021/10/22 01:11:14;;;;;;;11.23;2.92;;;;;;;5.87;89.63;101523.78;5113502;28;20102;-36
2021/10/22 01:13:40;;;;;;;12.15;2.60;;;;;;;5.86;89.34;101527.50;5112862;28;20095;-36
2021/10/22 01:16:05;;;;;;;14.03;3.40;;;;;;;5.68;89.39;101492.13;5113276;28;20457;-36
2021/10/22 01:18:31;;;;;;;9.83;2.90;;;;;;;5.85;89.26;101519.59;5114164;28;20753;-36
2021/10/22 01:20:58;;;;;;;10.67;3.13;;;;;;;5.73;88.97;101492.41;5117272;28;20055;-36
2021/10/22 01:23:24;;;;;;;12.50;2.78;;;;;;;5.83;88.85;101525.16;5117522;28;20635;-36
2021/10/22 01:25:49;;;;;;;9.20;2.88;;;;;;;5.79;89.06;101513.13;5117016;28;20103;-36
2021/10/22 01:28:15;;;;;;;12.50;4.17;;;;;;;5.78;89.44;101514.16;5116752;28;20122;-36
2021/10/22 01:30:41;;;;;;;13.65;3.05;;;;;;;5.72;89.13;101509.53;5116990;28;20076;-36
2021/10/22 01:33:07;;;;;;;12.88;3.03;;;;;;;5.63;88.32;101486.47;5117799;28;20055;-36
2021/10/22 01:35:33;;;;;;;10.90;3.13;;;;;;;5.73;89.42;101505.81;5117154;28;20031;-36
2021/10/22 01:37:58;;;;;;;12.55;3.10;;;;;;;5.71;88.83;101502.50;5116878;28;20348;-36
2021/10/22 01:40:24;;;;;;;13.70;4.03;;;;;;;5.75;88.82;101511.00;5117050;28;20408;-36
2021/10/22 01:42:50;;;;;;;12.65;3.63;;;;;;;5.73;88.04;101513.03;5116987;28;20020;-36
2021/10/22 01:45:15;;;;;;;15.55;3.30;;;;;;;5.71;87.76;101510.53;5116648;28;20093;-36
2021/10/22 01:47:41;;;;;;;10.80;2.97;;;;;;;5.73;88.03;101511.19;5116487;28;20019;-36
2021/10/22 01:50:07;;;;;;;13.83;2.80;;;;;;;5.59;87.86;101488.66;5116365;28;20038;-36
2021/10/22 01:52:33;;;;;;;;;;;;;;;5.76;87.43;101504.59;5117571;28;20103;-36
2021/10/22 01:54:59;;;;;;;12.32;3.28;;;;;;;5.69;88.13;101512.56;5116489;28;19943;-36
2021/10/22 01:57:25;;;;;;;12.35;3.92;;;;;;;5.66;88.09;101511.09;5116711;28;20413;-36
2021/10/22 01:59:50;;;;;;;;;;;;;;;5.71;88.20;101510.53;5116872;28;20455;-36
2021/10/22 02:02:16;;;;;;;17.35;3.92;;;;;;;5.58;88.13;101502.28;5116455;28;19908;-36
2021/10/22 02:04:41;;;;;;;13.77;3.50;;;;;;;5.58;88.05;101504.97;5116285;28;20031;-36
2021/10/22 02:07:07;;;;;;;13.37;4.30;;;;;;;5.58;88.48;101507.63;5116739;28;20028;-36
2021/10/22 02:09:32;;;;;;;11.65;3.65;;;;;;;5.45;88.78;101491.31;5116203;28;20028;-36
2021/10/22 02:11:58;;;;;;;10.75;3.67;;;;;;;5.46;87.89;101492.97;5116177;28;20034;-36
2021/10/22 02:14:23;;;;;;;13.07;3.70;;;;;;;5.52;87.89;101508.38;5116489;28;20023;-36
2021/10/22 02:16:49;;;;;;;13.23;4.67;;;;;;;5.40;87.38;101495.38;5115856;28;20019;-36
2021/10/22 02:19:14;;;;;;;16.37;3.70;;;;;;;5.48;87.66;101505.22;5116671;28;20435;-36
2021/10/22 02:21:39;;;;;;;11.50;3.80;;;;;;;5.41;88.08;101497.03;5115684;28;20792;-36
2021/10/22 02:24:06;;;;;;;15.87;4.00;;;;;;;5.40;87.87;101500.75;5115951;28;20024;-36
2021/10/22 02:26:33;;;;;;;16.90;4.22;;;;;;;5.35;87.70;101502.31;5116254;28;20443;-36
2021/10/22 02:28:59;;;;;;;11.75;3.92;;;;;;;5.43;87.79;101510.28;5115832;28;20034;-36
2021/10/22 02:31:24;;;;;;;10.07;3.63;;;;;;;5.43;87.80;101512.97;5115033;28;20055;-36
2021/10/22 02:33:50;;;;;;;14.00;3.93;;;;;;;5.32;87.30;101491.94;5116019;28;20368;-36
2021/10/22 02:36:16;;;;;;;19.40;4.73;;;;;;;5.28;87.21;101496.00;5116283;28;20068;-36
2021/10/22 02:38:41;;;;;;;20.05;5.25;;;;;;;5.32;87.49;101503.50;5115317;28;20023;-36
2021/10/22 02:41:08;;;;;;;14.87;4.43;;;;;;;5.26;88.42;101503.38;5115593;28;20024;-37
2021/10/22 02:43:33;;;;;;;14.48;4.20;;;;;;;5.27;88.17;101500.53;5115528;28;20418;-36
2021/10/22 02:45:59;;;;;;;11.83;4.63;;;;;;;5.27;87.43;101497.84;5115625;28;20032;-36
2021/10/22 02:48:24;;;;;;;21.33;4.87;;;;;;;5.26;88.16;101496.16;5115541;28;20246;-36
2021/10/22 02:50:49;;;;;;;11.43;3.57;;;;;;;5.22;88.00;101494.88;5115755;28;20582;-36
2021/10/22 02:53:15;;;;;;;19.90;5.77;;;;;;;5.23;88.59;101488.50;5116012;28;20090;-36
2021/10/22 02:55:40;;;;;;;16.65;4.60;;;;;;;5.11;87.74;101471.16;5115283;28;20023;-36
2021/10/22 02:58:06;;;;;;;13.37;3.90;;;;;;;5.19;87.67;101481.81;5115246;28;20032;-36
2021/10/22 03:00:31;;;;;;;9.43;3.23;;;;;;;5.02;88.03;101456.97;5114980;28;20077;-36
2021/10/22 03:02:56;;;;;;;12.40;4.20;;;;;;;5.16;88.21;101472.28;5115712;28;20359;-36
2021/10/22 03:05:22;;;;;;;12.50;3.67;;;;;;;5.13;87.94;101471.84;5115187;28;20020;-36
2021/10/22 03:07:47;;;;;;;15.80;4.23;;;;;;;5.13;88.03;101477.19;5115211;28;20068;-36
2021/10/22 03:10:13;;;;;;;16.30;3.90;;;;;;;5.08;87.62;101463.50;5115064;28;20039;-36
2021/10/22 03:12:38;;;;;;;12.43;3.92;;;;;;;5.13;88.03;101471.84;5115416;28;20027;-36
2021/10/22 03:15:06;;;;;;;13.83;4.23;;;;;;;5.07;87.54;101457.28;5115695;28;20028;-36
2021/10/22 03:17:31;;;;;;;17.02;4.32;;;;;;;5.06;88.31;101452.09;5114974;28;20035;-36
2021/10/22 03:19:57;;;;;;;14.90;4.27;;;;;;;5.07;87.41;101459.13;5115114;28;20031;-36
2021/10/22 03:22:22;;;;;;;12.40;3.67;;;;;;;5.15;87.05;101469.78;5115012;28;20491;-36
2021/10/22 03:24:48;;;;;;;12.47;3.50;;;;;;;5.18;87.10;101482.03;5114790;28;20110;-36
2021/10/22 03:27:15;;;;;;;16.10;4.03;;;;;;;5.18;86.90;101469.44;5114761;28;20317;-36
2021/10/22 03:29:41;;;;;;;26.70;5.32;;;;;;;5.14;87.10;101474.31;5114325;28;20468;-36
2021/10/22 03:32:07;;;;;;;12.48;3.60;;;;;;;5.13;87.76;101466.47;5114962;28;20043;-36
2021/10/22 03:34:33;;;;;;;15.55;3.47;;;;;;;5.13;87.12;101472.66;5114556;28;20015;-36
2021/10/22 03:36:59;;;;;;;14.05;3.65;;;;;;;5.07;86.98;101457.28;5114541;28;20024;-36
2021/10/22 03:39:24;;;;;;;13.90;3.83;;;;;;;5.15;86.86;101469.78;5114461;28;20114;-36
2021/10/22 03:41:49;;;;;;;16.63;3.90;;;;;;;5.13;86.65;101464.63;5114495;28;20102;-36
2021/10/22 03:44:15;;;;;;;13.10;3.53;;;;;;;4.95;86.78;101442.63;5114419;28;20024;-36
2021/10/22 03:46:40;;;;;;;13.43;3.50;;;;;;;5.13;86.62;101467.31;5114682;28;20101;-36
2021/10/22 03:49:05;;;;;;;15.87;3.73;;;;;;;5.09;87.01;101465.16;5114072;28;20031;-36
2021/10/22 03:51:31;;;;;;;16.07;3.93;;;;;;;5.10;86.72;101461.44;5114109;28;20047;-36
2021/10/22 03:53:56;;;;;;;13.00;3.97;;;;;;;5.11;86.73;101466.63;5114226;28;20095;-36
2021/10/22 03:56:21;;;;;;;14.97;3.43;;;;;;;5.09;86.56;101457.09;5114254;28;20023;-36
2021/10/22 03:58:47;;;;;;;9.57;3.10;;;;;;;5.10;86.64;101450.72;5113974;28;20018;-36
2021/10/22 04:01:13;;;;;;;14.23;4.07;;;;;;;5.14;87.07;101446.69;5114114;28;20045;-36
2021/10/22 04:03:38;;;;;;;11.73;4.03;;;;;;;5.18;85.95;101450.66;5114081;28;20049;-36
2021/10/22 04:06:04;;;;;;;13.93;3.50;;;;;;;5.18;85.87;101447.16;5114598;28;20452;-36
2021/10/22 04:08:30;;;;;;;;;;;;;;;5.23;86.58;101450.97;5114198;28;20027;-36
2021/10/22 04:10:55;;;;;;;11.97;2.87;;;;;;;5.10;86.19;101438.16;5114000;28;19986;-36
2021/10/22 04:13:21;;;;;;;8.77;2.90;;;;;;;5.09;86.31;101443.72;5114688;28;20253;-36
2021/10/22 04:15:48;;;;;;;13.60;3.50;;;;;;;5.20;86.10;101455.84;5096014;28;20028;-36
2021/10/22 04:18:13;;;;;;;11.55;3.97;;;;;;;5.21;85.68;101452.97;5114195;28;20286;-36
2021/10/22 04:20:39;;;;;;;18.00;5.07;;;;;;;5.22;86.37;101464.53;5113705;28;20030;-36
2021/10/22 04:23:04;;;;;;;16.70;4.07;;;;;;;5.15;86.01;101453.69;5114259;28;20028;-36
2021/10/22 04:25:30;;;;;;;12.30;3.57;;;;;;;5.22;86.13;101459.16;5113770;28;20027;-36
2021/10/22 04:27:55;;;;;;;14.50;3.17;;;;;;;5.19;86.30;101456.88;5114063;28;20020;-36
2021/10/22 04:30:21;;;;;;;10.80;3.65;;;;;;;5.20;86.28;101461.22;5113729;28;20023;-36
2021/10/22 04:32:47;;;;;;;16.95;4.28;;;;;;;5.13;86.26;101461.09;5113616;28;20067;-36
2021/10/22 04:35:13;;;;;;;18.33;3.47;;;;;;;5.21;86.24;101465.56;5113641;28;20024;-36
2021/10/22 04:40:33;;;;;;;13.95;3.60;;;;;;;5.24;85.94;101479.44;5114093;28;20027;-36
2021/10/22 04:43:11;;;;;;;9.43;3.15;;;;;;;5.27;86.18;101479.09;5113144;28;20076;-36
2021/10/22 04:45:39;;;;;;;13.73;3.50;;;;;;;5.28;85.89;101483.44;5113500;28;20135;-35
2021/10/22 04:48:06;;;;;;;13.55;3.50;;;;;;;5.29;85.87;101476.22;5113642;28;20165;-36
2021/10/22 04:50:33;;;;;;;13.93;3.72;;;;;;;5.30;85.69;101478.72;5113649;28;20046;-36
2021/10/22 04:52:59;;;;;;;10.70;2.97;;;;;;;5.30;86.09;101484.06;5114303;28;20024;-36
2021/10/22 04:55:27;;;;;;;14.07;3.55;;;;;;;5.20;86.58;101467.41;5117749;28;20023;-36
2021/10/22 04:57:53;;;;;;;15.52;4.20;;;;;;;5.31;85.89;101488.41;5117686;28;20030;-36
2021/10/22 05:00:20;;;;;;;16.25;3.80;;;;;;;5.35;86.15;101488.91;5117642;28;20081;-35
2021/10/22 05:02:46;;;;;;;10.25;3.17;;;;;;;5.36;86.21;101493.25;5117566;28;20024;-36
2021/10/22 05:05:12;;;;;;;13.65;3.47;;;;;;;5.36;85.79;101495.91;5117232;28;20028;-36
2021/10/22 05:07:39;;;;;;;17.80;3.78;;;;;;;5.39;85.85;101514.34;5117667;28;20126;-36
2021/10/22 05:10:05;;;;;;;13.52;3.05;;;;;;;5.42;86.37;101517.50;5117629;28;20030;-36
2021/10/22 05:12:31;;;;;;;16.88;3.10;;;;;;;5.43;86.26;101518.34;5117690;28;20102;-36
2021/10/22 05:14:57;;;;;;;20.67;3.60;;;;;;;5.46;86.34;101523.31;5117629;28;20139;-36
2021/10/22 05:17:22;;;;;;;15.52;4.07;;;;;;;5.42;86.71;101517.50;5117262;28;20117;-36
2021/10/22 05:19:48;;;;;;;13.40;3.33;;;;;;;5.36;86.58;101495.91;5117469;28;20028;-36
2021/10/22 05:22:13;;;;;;;15.73;4.07;;;;;;;5.56;86.46;101531.13;5117381;28;20489;-36
2021/10/22 05:24:38;;;;;;;14.40;4.30;;;;;;;5.58;87.14;101539.84;5117344;28;20400;-36
2021/10/22 05:27:04;;;;;;;12.37;2.97;;;;;;;5.57;87.83;101517.53;5117052;28;20390;-36
2021/10/22 05:29:29;;;;;;;13.00;3.77;;;;;;;5.58;87.78;101521.06;5116965;28;20118;-36
2021/10/22 05:31:54;;;;;;;19.67;4.63;;;;;;;5.47;88.00;101490.13;5117261;28;20367;-36
2021/10/22 05:34:21;;;;;;;14.00;3.50;;;;;;;5.54;87.06;101495.59;5116836;28;20309;-36
2021/10/22 05:36:50;;;;;;;22.02;3.65;;;;;;;5.56;87.63;101498.94;5117495;28;20023;-36
2021/10/22 05:39:16;;;;;;;12.65;3.75;;;;;;;5.52;87.57;101492.28;5116587;28;20451;-36
2021/10/22 05:41:42;;;;;;;12.15;3.80;;;;;;;5.54;87.30;101485.69;5117493;28;20153;-36
2021/10/22 05:44:07;;;;;;;15.30;3.60;;;;;;;5.51;88.13;101475.31;5116574;28;20023;-36
2021/10/22 05:46:33;;;;;;;13.73;3.47;;;;;;;5.43;87.24;101464.69;5116564;28;20027;-36
2021/10/22 05:48:58;;;;;;;17.50;3.87;;;;;;;5.54;87.42;101471.47;5116394;28;20027;-36
2021/10/22 05:51:23;;;;;;;15.47;4.30;;;;;;;5.36;87.90;101443.09;5116863;28;20049;-36
2021/10/22 05:53:51;;;;;;;12.67;3.40;;;;;;;5.35;87.83;101438.78;5116599;28;20024;-36
2021/10/22 05:56:17;;;;;;;10.68;3.33;;;;;;;5.42;88.06;101442.41;5116789;28;20312;-36
2021/10/22 05:58:43;;;;;;;14.40;3.70;;;;;;;5.54;87.86;101455.38;5116597;28;20020;-36
2021/10/22 06:01:08;;;;;;;14.07;3.60;;;;;;;5.57;88.12;101449.63;5116569;28;20027;-36
2021/10/22 06:03:34;;;;;;;15.00;3.65;;;;;;;5.58;88.57;101459.34;5116759;28;20023;-35
2021/10/22 06:05:59;;;;;;;11.73;3.30;;;;;;;5.58;88.30;101459.34;5116315;28;20348;-36
2021/10/22 06:08:24;;;;;;;17.30;3.70;;;;;;;5.49;88.23;101444.34;5116073;28;20463;-36
2021/10/22 06:10:50;;;;;;;13.17;4.13;;;;;;;5.60;88.32;101451.94;5116226;28;20019;-36
2021/10/22 06:13:15;;;;;;;15.67;4.27;;;;;;;5.59;87.60;101445.75;5116536;28;20136;-36
2021/10/22 06:15:41;;;;;;;21.35;4.10;;;;;;;5.58;88.25;101444.09;5116191;28;20357;-36
2021/10/22 06:18:06;;;;;;;16.50;3.75;;;;;;;5.54;88.34;101441.94;5116648;28;20040;-36
2021/10/22 06:20:43;;;;;;;11.68;3.50;;;;;;;5.54;88.47;101447.31;5116200;28;20174;-36
2021/10/22 06:25:38;;;;;;;13.02;3.53;;;;;;;5.51;88.45;101437.78;5116254;28;20064;-36
2021/10/22 06:28:03;;;;;;;12.07;3.25;;;;;;;5.35;88.90;101422.69;5116878;28;20405;-36
2021/10/22 06:30:29;;;;;;;10.90;2.90;;;;;;;5.47;88.60;101441.84;5116084;28;20024;-36
2021/10/22 06:32:54;;;;;;;16.40;4.00;;;;;;;5.51;88.79;101440.44;5116672;28;20337;-36
2021/10/22 06:35:19;;;;;;;13.40;4.03;;;;;;;5.53;89.07;101445.66;5116023;28;20074;-36
2021/10/22 06:37:45;;;;;;;13.57;3.40;;;;;;;5.57;88.94;101445.09;5116304;28;20098;-36
2021/10/22 06:40:11;;;;;;;11.80;3.50;;;;;;;5.65;88.52;101446.84;5115921;28;20517;-36
2021/10/22 06:42:37;;;;;;;14.00;4.10;;;;;;;5.65;89.41;101449.53;5115755;28;20016;-36
2021/10/22 06:45:03;;;;;;;10.23;3.00;;;;;;;5.74;89.32;101456.50;5115727;28;20077;-36
2021/10/22 06:47:28;;;;;;;12.75;3.47;;;;;;;5.69;89.20;101446.31;5116689;28;20348;-36
2021/10/22 06:49:53;;;;;;;11.10;3.33;;;;;;;5.86;89.09;101463.06;5115859;28;20016;-35
2021/10/22 06:52:19;;;;;;;11.13;3.07;;;;;;;5.90;88.80;101469.75;5115901;28;20425;-36
2021/10/22 06:54:44;;;;;;;12.00;3.20;;;;;;;5.85;88.51;101445.28;5115560;28;20041;-35
2021/10/22 06:57:09;;;;;;;8.67;2.63;;;;;;;5.76;88.81;101435.69;5115206;28;20016;-36
2021/10/22 06:59:35;;;;;;;16.70;3.67;;;;;;;6.02;89.58;101474.69;5115115;28;20028;-36
2021/10/22 07:02:00;;;;;;;14.77;4.22;;;;;;;6.05;88.74;101468.91;5115977;28;20111;-36
2021/10/22 07:04:25;;;;;;;13.47;3.60;;;;;;;6.08;89.01;101469.38;5115666;28;20023;-36
2021/10/22 07:09:34;;;;;;;14.70;3.72;;;;;;;6.18;88.63;101477.16;5115559;28;20103;-36
2021/10/22 07:12:00;;;;;;;15.27;4.87;;;;;;;6.10;88.40;101458.44;5115379;28;20459;-36
2021/10/22 07:14:30;;;;;;;13.20;3.37;;;;;;;6.31;87.79;101476.50;5115237;28;20354;-35
2021/10/22 07:16:56;;;;;;;16.55;3.38;;;;;;;6.26;88.52;101465.50;5114676;28;20344;-36
2021/10/22 07:19:21;;;;;;;11.25;3.13;;;;;;;6.37;87.93;101487.31;5114847;28;20047;-35
2021/10/22 07:21:50;;;;;;;12.50;3.00;;;;;;;6.25;88.32;101458.47;5115328;28;20465;-36
2021/10/22 07:24:19;;;;;;;16.27;3.60;;;;;;;6.43;87.68;101475.00;5115705;28;20019;-36
2021/10/22 07:26:45;;;;;;;23.48;3.75;;;;;;;6.46;88.12;101490.75;5115440;28;20065;-35
2021/10/22 07:29:10;;;;;;;13.57;3.20;;;;;;;6.42;88.16;101470.66;5114643;28;20068;-36
2021/10/22 07:31:36;;;;;;;13.80;3.13;;;;;;;6.50;87.62;101470.53;5114884;28;20349;-36
2021/10/22 07:34:01;;;;;;;11.30;3.47;;;;;;;6.53;88.64;101480.91;5115081;28;20112;-36
2021/10/22 07:36:26;;;;;;;16.97;3.50;;;;;;;6.57;87.87;101484.03;5115136;28;20351;-36
2021/10/22 07:38:52;;;;;;;12.80;4.10;;;;;;;6.59;87.29;101490.91;5114499;28;20026;-36
2021/10/22 07:41:17;;;;;;;13.30;3.80;;;;;;;6.63;88.10;101477.91;5115554;28;20081;-36
2021/10/22 07:43:44;;;;;;;11.37;3.47;;;;;;;6.65;88.22;101487.47;5114717;28;20529;-36
2021/10/22 07:46:10;;;;;;;16.77;4.00;;;;;;;6.69;88.82;101501.34;5115287;28;20482;-36
2021/10/22 07:48:35;;;;;;;13.15;3.50;;;;;;;6.71;88.30;101493.94;5115092;28;20016;-36
2021/10/22 07:51:01;;;;;;;12.70;3.15;;;;;;;6.69;89.00;101494.13;5114162;28;20111;-36
2021/10/22 07:53:26;;;;;;;9.10;3.00;;;;;;;6.74;88.43;101498.09;5114707;28;20569;-36
2021/10/22 07:55:51;;;;;;;10.37;3.40;;;;;;;6.79;88.04;101504.56;5114224;28;20027;-36
2021/10/22 07:58:17;;;;;;;10.93;3.60;;;;;;;6.77;88.24;101493.16;5114670;28;20027;-36
2021/10/22 08:00:43;;;;;;;19.87;4.07;;;;;;;6.67;87.69;101482.72;5114236;28;20016;-36
2021/10/22 08:03:08;;;;;;;12.55;3.63;;;;;;;6.85;87.07;101506.50;5114124;28;20443;-36
2021/10/22 08:05:34;;;;;;;12.40;2.97;;;;;;;6.80;87.78;101497.34;5114583;28;20034;-36
2021/10/22 08:08:01;;;;;;;12.52;3.13;;;;;;;6.93;87.75;101519.81;5114350;28;20318;-36
2021/10/22 08:10:26;;;;;;;11.50;2.67;;;;;;;7.01;87.89;101521.53;5114317;28;20023;-36
2021/10/22 08:12:52;;;;;;;11.73;3.47;;;;;;;7.10;87.81;101517.72;5114124;28;20072;-36
2021/10/22 08:15:18;;;;;;;11.65;3.30;;;;;;;7.18;87.34;101511.38;5114500;28;20030;-36
2021/10/22 08:17:43;;;;;;;15.87;3.13;;;;;;;7.13;86.98;101508.44;5114480;28;20444;-36
2021/10/22 08:20:10;;;;;;;10.07;2.80;;;;;;;7.29;86.47;101523.47;5114412;28;20036;-36
2021/10/22 08:22:36;;;;;;;17.95;3.30;;;;;;;7.31;86.82;101516.88;5113959;28;20475;-36
2021/10/22 08:25:10;;;;;;;12.57;3.20;;;;;;;7.36;86.35;101521.69;5114001;28;20312;-36
2021/10/22 08:27:46;;;;;;;13.70;2.95;;;;;;;7.40;86.64;101518.41;5113962;28;20024;-36
2021/10/22 08:30:16;;;;;;;10.27;3.07;;;;;;;7.48;85.91;101517.44;5114218;28;20015;-36
2021/10/22 08:32:47;;;;;;;13.05;3.38;;;;;;;7.55;87.42;101517.50;5113671;28;20427;-36
2021/10/22 08:35:12;;;;;;;12.05;3.25;;;;;;;7.60;86.92;101518.56;5113848;28;20020;-36
2021/10/22 08:37:38;;;;;;;12.57;3.20;;;;;;;7.59;85.22;101499.94;5114224;28;20038;-36
2021/10/22 08:40:06;;;;;;;12.95;3.63;;;;;;;7.71;85.13;101522.59;5113283;28;20023;-36
2021/10/22 08:42:32;;;;;;;9.77;2.75;;;;;;;7.75;86.07;101523.84;5113823;28;20027;-36
2021/10/22 08:44:57;;;;;;;10.10;3.00;;;;;;;7.78;84.74;101528.03;5113600;28;20470;-36
2021/10/22 08:47:30;;;;;;;11.13;3.80;;;;;;;7.78;85.70;101515.41;5113324;28;20024;-36
2021/10/22 08:50:00;;;;;;;12.15;3.03;;;;;;;7.84;85.81;101517.31;5114039;28;20015;-36
2021/10/22 08:52:28;;;;;;;14.45;3.58;;;;;;;8.00;85.35;101510.78;5113709;28;20448;-36
2021/10/22 08:54:58;;;;;;;9.25;3.40;;;;;;;8.10;85.11;101516.66;5113825;28;20024;-36
2021/10/22 08:57:23;;;;;;;17.92;4.32;;;;;;;8.17;84.22;101501.34;5113610;28;20024;-36
2021/10/22 08:59:49;;;;;;;9.70;2.65;;;;;;;8.28;84.82;101516.13;5113887;28;20023;-36
2021/10/22 09:02:18;;;;;;;13.80;3.35;;;;;;;8.35;84.01;101525.09;5095495;28;20035;-36
2021/10/22 09:04:51;;;;;;;9.98;3.22;;;;;;;8.30;84.17;101506.00;5113341;28;20345;-36
2021/10/22 09:07:20;;;;;;;9.75;2.88;;;;;;;8.26;83.55;101505.56;5113672;28;20019;-36
2021/10/22 09:09:47;;;;;;;12.82;3.60;;;;;;;8.48;83.76;101524.34;5113555;28;20054;-36
2021/10/22 09:12:13;;;;;;;11.02;2.90;;;;;;;8.50;83.22;101522.28;5113837;28;20028;-36
2021/10/22 09:14:57;;;;;;;12.93;3.30;;;;;;;8.51;83.04;101529.34;5113261;28;20458;-36
2021/10/22 09:17:33;;;;;;;12.43;4.40;;;;;;;8.54;82.82;101538.88;5113475;28;20016;-36
2021/10/22 09:19:59;;;;;;;;;;;;;;;8.61;83.06;101523.56;5113454;28;20055;-36
2021/10/22 09:22:33;;;;;;;16.70;3.40;;;;;;;8.50;82.09;101523.13;5113788;28;19907;-36
2021/10/22 09:25:10;;;;;;;12.85;4.68;;;;;;;8.56;82.45;101523.34;5113525;28;20028;-36
2021/10/22 09:27:41;;;;;;;11.82;3.22;;;;;;;8.57;82.69;101533.91;5113323;28;20030;-36
2021/10/22 09:30:25;;;;;;;11.68;3.00;;;;;;;8.60;82.70;101536.22;5113233;28;20061;-36
2021/10/22 09:32:54;;;;;;;13.45;2.75;;;;;;;8.50;82.07;101516.91;5113157;28;20024;-36
2021/10/22 09:35:55;;;;;;;13.10;2.90;;;;;;;8.64;82.30;101542.06;5113022;28;20027;-36
2021/10/22 09:38:23;;;;;;;10.48;3.70;;;;;;;8.47;82.56;101506.50;5030250;28;20103;-36
2021/10/22 09:40:51;;;;;;;13.82;3.50;;;;;;;8.65;82.61;101532.91;5033423;28;20033;-36
2021/10/22 09:43:30;;;;;;;12.55;2.85;;;;;;;8.70;81.62;101519.66;5033895;28;20023;-36
2021/10/22 09:46:17;;;;;;;9.48;2.85;;;;;;;8.79;81.46;101541.91;5033873;28;20060;-36
2021/10/22 09:48:47;;;;;;;10.00;2.80;;;;;;;8.93;80.01;101527.38;5034178;28;20029;-36
2021/10/22 09:51:33;;;;;;;9.50;2.80;;;;;;;9.06;80.62;101535.53;5033790;28;20037;-36
2021/10/22 09:54:03;;;;;;;19.95;3.63;;;;;;;9.11;79.15;101527.66;5033963;28;20454;-36
2021/10/22 09:56:29;;;;;;;9.10;2.50;;;;;;;9.12;79.82;101548.19;5033975;28;20025;-36
2021/10/22 09:58:56;;;;;;;;;;;;;;;9.17;79.59;101539.50;5034292;28;20053;-36
2021/10/22 10:01:30;;;;;;;11.88;2.75;;;;;;;9.17;79.38;101526.00;5033506;28;19954;-36
2021/10/22 10:03:58;;;;;;;12.68;2.67;;;;;;;9.29;78.99;101543.25;5033868;28;20025;-36
2021/10/22 10:06:24;;;;;;;10.75;2.47;;;;;;;9.37;78.79;101540.38;5033811;28;20179;-36
2021/10/22 10:08:49;;;;;;;9.05;2.42;;;;;;;9.60;77.55;101549.94;5033541;28;20096;-36
2021/10/22 10:11:14;;;;;;;8.90;2.47;;;;;;;9.77;77.33;101537.69;5039150;28;20029;-36
2021/10/22 10:13:40;;;;;;;11.87;2.63;;;;;;;10.02;78.13;101559.47;5116104;28;20019;-36
2021/10/22 10:16:06;;;;;;;11.67;2.37;;;;;;;10.07;77.87;101549.69;5116305;28;20034;-36
2021/10/22 10:18:40;;;;;;;10.13;2.78;;;;;;;10.01;78.90;101542.44;5116664;28;20039;-36
2021/10/22 10:21:09;;;;;;;11.82;3.03;;;;;;;10.01;79.41;101557.81;5115885;28;20030;-36
2021/10/22 10:23:43;;;;;;;7.10;2.42;;;;;;;9.96;80.05;101568.44;5116734;28;20073;-36
2021/10/22 10:26:38;;;;;;;9.25;2.60;;;;;;;9.91;81.42;101563.66;5116813;28;20121;-36
2021/10/22 10:29:08;;;;;;;13.93;2.33;;;;;;;9.79;82.38;101559.91;5033065;28;20045;-36
2021/10/22 10:31:47;;;;;;;12.13;2.78;;;;;;;9.78;82.90;101566.34;5033394;28;20421;-36
2021/10/22 10:34:35;;;;;;;10.32;2.55;;;;;;;9.86;82.42;101562.59;5034039;28;20045;-36
2021/10/22 10:37:05;;;;;;;13.50;2.92;;;;;;;9.82;83.54;101573.00;5033019;28;20080;-36
2021/10/22 10:39:46;;;;;;;13.85;2.55;;;;;;;9.78;82.33;101583.38;5032878;28;20056;-36
2021/10/22 10:42:32;;;;;;;9.27;2.63;;;;;;;9.76;82.52;101581.91;5033285;28;20033;-36
2021/10/22 10:45:01;;;;;;;14.00;2.37;;;;;;;9.65;83.07;101582.53;5032740;28;20160;-36
2021/10/22 10:47:26;;;;;;;12.32;2.42;;;;;;;9.57;83.98;101580.06;5032987;28;20026;-36
2021/10/22 10:49:52;;;;;;;8.73;2.10;;;;;;;9.61;85.04;101578.59;5032702;28;20466;-36
2021/10/22 10:52:40;;;;;;;13.53;2.53;;;;;;;9.63;85.57;101590.84;5032027;28;20041;-36
2021/10/22 10:55:31;;;;;;;12.20;2.47;;;;;;;9.50;85.79;101583.56;5032832;28;20033;-36
2021/10/22 10:58:00;;;;;;;15.70;2.85;;;;;;;9.44;86.34;101592.50;5032422;28;20029;-36
2021/10/22 11:00:36;;;;;;;13.25;2.40;;;;;;;9.25;87.01;101574.38;5032586;28;20112;-36
2021/10/22 11:03:02;;;;;;;17.92;2.53;;;;;;;9.39;88.37;101611.16;5033043;28;20040;-36
2021/10/22 11:05:49;;;;;;;12.45;2.30;;;;;;;9.42;88.35;101608.06;5074198;28;20453;-36
2021/10/22 11:08:37;;;;;;;14.57;2.05;;;;;;;9.31;88.11;101594.31;5115574;28;20031;-36
2021/10/22 11:11:17;;;;;;;8.77;2.00;;;;;;;9.44;87.76;101610.56;5115496;28;20026;-36
2021/10/22 11:14:01;;;;;;;12.75;2.95;;;;;;;9.44;88.54;101614.09;5116004;28;20032;-36
2021/10/22 11:19:08;;;;;;;8.57;2.22;;;;;;;9.30;88.71;101615.09;5115219;28;20133;-36
2021/10/22 11:21:46;;;;;;;9.23;2.85;;;;;;;9.34;89.83;101619.06;5114700;28;20503;-36
2021/10/22 11:24:27;;;;;;;14.75;2.63;;;;;;;9.25;89.61;101628.38;5115725;28;20074;-37
2021/10/22 11:27:02;;;;;;;11.18;2.28;;;;;;;9.24;90.72;101632.09;5115387;28;20115;-36
2021/10/22 11:29:30;;;;;;;11.85;2.45;;;;;;;9.27;91.83;101628.97;5114768;28;20026;-36
2021/10/22 11:31:58;;;;;;;11.82;2.25;;;;;;;9.34;90.75;101621.75;5114794;28;20059;-36
2021/10/22 11:34:29;;;;;;;8.90;2.50;;;;;;;9.39;91.17;101619.28;5114931;28;20015;-36
2021/10/22 11:37:12;;;;;;;10.32;2.95;;;;;;;9.57;90.90;101623.25;5114963;28;20096;-36
2021/10/22 11:39:43;;;;;;;13.05;2.60;;;;;;;9.66;91.08;101622.88;5114848;28;20372;-36